sensor_id;sensor_type;location;lat;lon;timestamp;P1;durP1;ratioP1;P2;durP2;ratioP2
74523;SDS011;63074;44.696;10.358;2023-06-24T00:01:16;5.57;;;3.67;;
74523;SDS011;63074;44.696;10.358;2023-06-24T00:03:43;6.35;;;4.07;;
74523;SDS011;63074;44.696;10.358;2023-06-24T00:08:46;4.78;;;3.58;;
74523;SDS011;63074;44.696;10.358;2023-06-24T00:11:14;5.53;;;3.42;;
74523;SDS011;63074;44.696;10.358;2023-06-24T00:13:41;4.55;;;3.42;;
74523;SDS011;63074;44.696;10.358;2023-06-24T00:16:08;6.47;;;3.90;;
74523;SDS011;63074;44.696;10.358;2023-06-24T00:18:36;5.75;;;3.80;;
74523;SDS011;63074;44.696;10.358;2023-06-24T00:21:06;6.70;;;3.78;;
74523;SDS011;63074;44.696;10.358;2023-06-24T00:23:32;7.00;;;3.95;;
74523;SDS011;63074;44.696;10.358;2023-06-24T00:26:01;6.68;;;4.20;;
74523;SDS011;63074;44.696;10.358;2023-06-24T00:30:53;7.05;;;4.18;;
74523;SDS011;63074;44.696;10.358;2023-06-24T00:33:20;6.20;;;3.63;;
74523;SDS011;63074;44.696;10.358;2023-06-24T00:35:46;6.68;;;4.50;;
74523;SDS011;63074;44.696;10.358;2023-06-24T00:38:13;6.68;;;4.18;;
74523;SDS011;63074;44.696;10.358;2023-06-24T00:40:39;6.57;;;4.10;;
74523;SDS011;63074;44.696;10.358;2023-06-24T00:43:06;7.45;;;4.93;;
74523;SDS011;63074;44.696;10.358;2023-06-24T00:45:32;7.22;;;4.00;;
74523;SDS011;63074;44.696;10.358;2023-06-24T00:47:58;7.88;;;3.53;;
74523;SDS011;63074;44.696;10.358;2023-06-24T00:52:52;6.80;;;3.35;;
74523;SDS011;63074;44.696;10.358;2023-06-24T00:55:18;7.68;;;3.22;;
74523;SDS011;63074;44.696;10.358;2023-06-24T00:57:49;5.47;;;3.47;;
74523;SDS011;63074;44.696;10.358;2023-06-24T01:00:18;5.18;;;3.55;;
74523;SDS011;63074;44.696;10.358;2023-06-24T01:02:47;5.15;;;3.22;;
74523;SDS011;63074;44.696;10.358;2023-06-24T01:05:14;6.53;;;3.35;;
74523;SDS011;63074;44.696;10.358;2023-06-24T01:07:41;6.97;;;3.30;;
74523;SDS011;63074;44.696;10.358;2023-06-24T01:10:08;6.25;;;3.67;;
74523;SDS011;63074;44.696;10.358;2023-06-24T01:12:38;8.50;;;3.78;;
74523;SDS011;63074;44.696;10.358;2023-06-24T01:15:08;7.50;;;3.58;;
74523;SDS011;63074;44.696;10.358;2023-06-24T01:17:37;6.57;;;3.42;;
74523;SDS011;63074;44.696;10.358;2023-06-24T01:36:48;6.18;;;3.50;;
74523;SDS011;63074;44.696;10.358;2023-06-24T01:39:37;8.50;;;4.22;;
74523;SDS011;63074;44.696;10.358;2023-06-24T01:42:10;6.68;;;3.85;;
74523;SDS011;63074;44.696;10.358;2023-06-24T01:44:39;6.22;;;3.50;;
74523;SDS011;63074;44.696;10.358;2023-06-24T01:47:09;7.13;;;3.88;;
74523;SDS011;63074;44.696;10.358;2023-06-24T01:49:38;8.48;;;3.75;;
74523;SDS011;63074;44.696;10.358;2023-06-24T01:52:07;6.32;;;3.95;;
74523;SDS011;63074;44.696;10.358;2023-06-24T01:54:38;5.85;;;3.65;;
74523;SDS011;63074;44.696;10.358;2023-06-24T01:57:08;6.80;;;3.55;;
74523;SDS011;63074;44.696;10.358;2023-06-24T02:02:05;7.40;;;3.60;;
74523;SDS011;63074;44.696;10.358;2023-06-24T02:04:33;5.65;;;3.65;;
74523;SDS011;63074;44.696;10.358;2023-06-24T02:07:01;7.63;;;3.10;;
74523;SDS011;63074;44.696;10.358;2023-06-24T02:09:29;7.88;;;3.58;;
74523;SDS011;63074;44.696;10.358;2023-06-24T02:11:56;5.35;;;3.75;;
74523;SDS011;63074;44.696;10.358;2023-06-24T02:14:25;7.90;;;3.42;;
74523;SDS011;63074;44.696;10.358;2023-06-24T02:16:51;6.28;;;4.07;;
74523;SDS011;63074;44.696;10.358;2023-06-24T02:19:22;7.03;;;3.70;;
74523;SDS011;63074;44.696;10.358;2023-06-24T02:21:51;6.43;;;3.70;;
74523;SDS011;63074;44.696;10.358;2023-06-24T02:24:18;7.25;;;3.85;;
74523;SDS011;63074;44.696;10.358;2023-06-24T02:26:45;5.82;;;3.83;;
74523;SDS011;63074;44.696;10.358;2023-06-24T02:29:13;7.75;;;3.88;;
74523;SDS011;63074;44.696;10.358;2023-06-24T02:31:40;7.38;;;3.63;;
74523;SDS011;63074;44.696;10.358;2023-06-24T02:34:06;7.22;;;3.55;;
74523;SDS011;63074;44.696;10.358;2023-06-24T02:36:32;6.18;;;3.30;;
74523;SDS011;63074;44.696;10.358;2023-06-24T02:38:59;5.22;;;3.33;;
74523;SDS011;63074;44.696;10.358;2023-06-24T02:43:51;7.60;;;3.20;;
74523;SDS011;63074;44.696;10.358;2023-06-24T02:46:18;6.85;;;3.35;;
74523;SDS011;63074;44.696;10.358;2023-06-24T02:48:46;6.10;;;3.42;;
74523;SDS011;63074;44.696;10.358;2023-06-24T02:51:13;6.63;;;3.78;;
74523;SDS011;63074;44.696;10.358;2023-06-24T02:53:39;6.68;;;3.78;;
74523;SDS011;63074;44.696;10.358;2023-06-24T02:56:06;7.35;;;3.75;;
74523;SDS011;63074;44.696;10.358;2023-06-24T02:58:35;6.55;;;3.88;;
74523;SDS011;63074;44.696;10.358;2023-06-24T03:01:04;6.25;;;3.58;;
74523;SDS011;63074;44.696;10.358;2023-06-24T03:03:34;14.45;;;4.22;;
74523;SDS011;63074;44.696;10.358;2023-06-24T03:06:01;6.30;;;3.83;;
74523;SDS011;63074;44.696;10.358;2023-06-24T03:08:28;6.78;;;3.70;;
74523;SDS011;63074;44.696;10.358;2023-06-24T03:10:55;5.53;;;3.15;;
74523;SDS011;63074;44.696;10.358;2023-06-24T03:13:22;9.18;;;5.03;;
74523;SDS011;63074;44.696;10.358;2023-06-24T03:15:49;6.30;;;3.37;;
74523;SDS011;63074;44.696;10.358;2023-06-24T03:18:16;6.47;;;3.58;;
74523;SDS011;63074;44.696;10.358;2023-06-24T03:20:43;8.02;;;3.70;;
74523;SDS011;63074;44.696;10.358;2023-06-24T03:23:09;6.70;;;4.25;;
74523;SDS011;63074;44.696;10.358;2023-06-24T03:25:35;8.23;;;3.90;;
74523;SDS011;63074;44.696;10.358;2023-06-24T03:28:02;6.22;;;3.75;;
74523;SDS011;63074;44.696;10.358;2023-06-24T03:30:29;6.95;;;3.88;;
74523;SDS011;63074;44.696;10.358;2023-06-24T03:32:56;7.38;;;3.67;;
74523;SDS011;63074;44.696;10.358;2023-06-24T03:35:22;7.53;;;3.40;;
74523;SDS011;63074;44.696;10.358;2023-06-24T03:37:48;6.45;;;3.78;;
74523;SDS011;63074;44.696;10.358;2023-06-24T03:40:15;7.07;;;3.63;;
74523;SDS011;63074;44.696;10.358;2023-06-24T03:42:41;7.13;;;4.35;;
74523;SDS011;63074;44.696;10.358;2023-06-24T03:45:07;6.93;;;4.20;;
74523;SDS011;63074;44.696;10.358;2023-06-24T03:47:33;7.57;;;4.18;;
74523;SDS011;63074;44.696;10.358;2023-06-24T03:50:00;6.18;;;4.07;;
74523;SDS011;63074;44.696;10.358;2023-06-24T03:54:52;7.68;;;4.18;;
74523;SDS011;63074;44.696;10.358;2023-06-24T03:57:18;6.55;;;4.15;;
74523;SDS011;63074;44.696;10.358;2023-06-24T03:59:45;9.73;;;4.70;;
74523;SDS011;63074;44.696;10.358;2023-06-24T04:02:12;6.22;;;3.72;;
74523;SDS011;63074;44.696;10.358;2023-06-24T04:04:39;5.45;;;3.75;;
74523;SDS011;63074;44.696;10.358;2023-06-24T04:07:05;6.38;;;3.63;;
74523;SDS011;63074;44.696;10.358;2023-06-24T04:09:32;6.30;;;4.07;;
74523;SDS011;63074;44.696;10.358;2023-06-24T04:11:59;5.63;;;3.28;;
74523;SDS011;63074;44.696;10.358;2023-06-24T04:14:26;6.43;;;3.33;;
74523;SDS011;63074;44.696;10.358;2023-06-24T04:16:52;6.63;;;3.38;;
74523;SDS011;63074;44.696;10.358;2023-06-24T04:19:18;5.15;;;3.30;;
74523;SDS011;63074;44.696;10.358;2023-06-24T04:21:44;5.35;;;3.17;;
74523;SDS011;63074;44.696;10.358;2023-06-24T04:24:10;6.15;;;3.35;;
74523;SDS011;63074;44.696;10.358;2023-06-24T04:26:37;5.32;;;2.97;;
74523;SDS011;63074;44.696;10.358;2023-06-24T04:29:03;4.53;;;3.03;;
74523;SDS011;63074;44.696;10.358;2023-06-24T04:31:29;6.95;;;3.72;;
74523;SDS011;63074;44.696;10.358;2023-06-24T04:33:55;5.32;;;3.17;;
74523;SDS011;63074;44.696;10.358;2023-06-24T04:36:22;8.68;;;3.65;;
74523;SDS011;63074;44.696;10.358;2023-06-24T04:38:48;5.72;;;3.70;;
74523;SDS011;63074;44.696;10.358;2023-06-24T04:41:14;8.02;;;3.33;;
74523;SDS011;63074;44.696;10.358;2023-06-24T04:43:40;5.07;;;3.00;;
74523;SDS011;63074;44.696;10.358;2023-06-24T04:46:06;5.80;;;3.47;;
74523;SDS011;63074;44.696;10.358;2023-06-24T04:48:33;5.90;;;3.40;;
74523;SDS011;63074;44.696;10.358;2023-06-24T04:50:59;5.88;;;3.25;;
74523;SDS011;63074;44.696;10.358;2023-06-24T04:53:25;9.20;;;3.70;;
74523;SDS011;63074;44.696;10.358;2023-06-24T04:55:51;5.93;;;3.30;;
74523;SDS011;63074;44.696;10.358;2023-06-24T04:58:18;6.00;;;3.30;;
74523;SDS011;63074;44.696;10.358;2023-06-24T05:00:44;6.18;;;2.88;;
74523;SDS011;63074;44.696;10.358;2023-06-24T05:03:10;4.95;;;3.28;;
74523;SDS011;63074;44.696;10.358;2023-06-24T05:05:36;6.00;;;3.70;;
74523;SDS011;63074;44.696;10.358;2023-06-24T05:08:03;5.32;;;3.67;;
74523;SDS011;63074;44.696;10.358;2023-06-24T05:10:29;6.53;;;3.33;;
74523;SDS011;63074;44.696;10.358;2023-06-24T05:12:55;4.95;;;3.35;;
74523;SDS011;63074;44.696;10.358;2023-06-24T05:15:21;6.32;;;3.17;;
74523;SDS011;63074;44.696;10.358;2023-06-24T05:17:47;5.63;;;3.97;;
74523;SDS011;63074;44.696;10.358;2023-06-24T05:20:14;5.15;;;2.88;;
74523;SDS011;63074;44.696;10.358;2023-06-24T05:22:40;8.95;;;3.10;;
74523;SDS011;63074;44.696;10.358;2023-06-24T05:25:06;6.95;;;3.40;;
74523;SDS011;63074;44.696;10.358;2023-06-24T05:27:33;5.38;;;3.63;;
74523;SDS011;63074;44.696;10.358;2023-06-24T05:29:59;5.30;;;2.72;;
74523;SDS011;63074;44.696;10.358;2023-06-24T05:32:25;6.60;;;3.15;;
74523;SDS011;63074;44.696;10.358;2023-06-24T05:34:51;5.90;;;3.10;;
74523;SDS011;63074;44.696;10.358;2023-06-24T05:37:17;6.00;;;3.30;;
74523;SDS011;63074;44.696;10.358;2023-06-24T05:39:43;6.13;;;3.40;;
74523;SDS011;63074;44.696;10.358;2023-06-24T05:42:10;7.10;;;3.58;;
74523;SDS011;63074;44.696;10.358;2023-06-24T05:44:36;6.53;;;3.63;;
74523;SDS011;63074;44.696;10.358;2023-06-24T05:47:02;4.95;;;2.90;;
74523;SDS011;63074;44.696;10.358;2023-06-24T05:49:28;6.32;;;3.13;;
74523;SDS011;63074;44.696;10.358;2023-06-24T05:51:55;8.95;;;4.22;;
74523;SDS011;63074;44.696;10.358;2023-06-24T05:54:22;5.90;;;3.15;;
74523;SDS011;63074;44.696;10.358;2023-06-24T05:56:48;5.15;;;3.17;;
74523;SDS011;63074;44.696;10.358;2023-06-24T05:59:15;8.25;;;3.17;;
74523;SDS011;63074;44.696;10.358;2023-06-24T06:01:41;9.10;;;3.42;;
74523;SDS011;63074;44.696;10.358;2023-06-24T06:04:07;6.18;;;3.20;;
74523;SDS011;63074;44.696;10.358;2023-06-24T06:06:33;7.38;;;4.03;;
74523;SDS011;63074;44.696;10.358;2023-06-24T06:08:59;5.78;;;3.53;;
74523;SDS011;63074;44.696;10.358;2023-06-24T06:11:26;7.07;;;3.78;;
74523;SDS011;63074;44.696;10.358;2023-06-24T06:13:55;6.70;;;3.75;;
74523;SDS011;63074;44.696;10.358;2023-06-24T06:16:22;5.80;;;3.53;;
74523;SDS011;63074;44.696;10.358;2023-06-24T06:18:48;6.85;;;3.63;;
74523;SDS011;63074;44.696;10.358;2023-06-24T06:21:15;7.20;;;3.92;;
74523;SDS011;63074;44.696;10.358;2023-06-24T06:23:41;9.73;;;3.88;;
74523;SDS011;63074;44.696;10.358;2023-06-24T06:26:07;6.47;;;3.75;;
74523;SDS011;63074;44.696;10.358;2023-06-24T06:28:33;5.63;;;3.63;;
74523;SDS011;63074;44.696;10.358;2023-06-24T06:31:00;8.95;;;4.13;;
74523;SDS011;63074;44.696;10.358;2023-06-24T06:33:26;10.35;;;4.10;;
74523;SDS011;63074;44.696;10.358;2023-06-24T06:35:52;5.93;;;3.85;;
74523;SDS011;63074;44.696;10.358;2023-06-24T06:38:18;7.28;;;4.32;;
74523;SDS011;63074;44.696;10.358;2023-06-24T06:40:45;6.03;;;4.05;;
74523;SDS011;63074;44.696;10.358;2023-06-24T06:43:11;6.20;;;3.53;;
74523;SDS011;63074;44.696;10.358;2023-06-24T06:45:37;6.95;;;3.90;;
74523;SDS011;63074;44.696;10.358;2023-06-24T06:48:04;8.10;;;4.80;;
74523;SDS011;63074;44.696;10.358;2023-06-24T06:50:33;7.28;;;3.97;;
74523;SDS011;63074;44.696;10.358;2023-06-24T06:53:00;7.50;;;4.45;;
74523;SDS011;63074;44.696;10.358;2023-06-24T06:57:52;6.80;;;4.25;;
74523;SDS011;63074;44.696;10.358;2023-06-24T07:00:19;7.57;;;4.28;;
74523;SDS011;63074;44.696;10.358;2023-06-24T07:02:46;8.40;;;4.40;;
74523;SDS011;63074;44.696;10.358;2023-06-24T07:05:15;8.00;;;4.75;;
74523;SDS011;63074;44.696;10.358;2023-06-24T07:07:43;6.03;;;3.95;;
74523;SDS011;63074;44.696;10.358;2023-06-24T07:10:10;8.00;;;3.97;;
74523;SDS011;63074;44.696;10.358;2023-06-24T07:12:37;6.55;;;3.80;;
74523;SDS011;63074;44.696;10.358;2023-06-24T07:15:03;6.00;;;3.72;;
74523;SDS011;63074;44.696;10.358;2023-06-24T07:17:30;7.93;;;4.32;;
74523;SDS011;63074;44.696;10.358;2023-06-24T07:19:56;7.25;;;4.20;;
74523;SDS011;63074;44.696;10.358;2023-06-24T07:22:22;5.93;;;4.18;;
74523;SDS011;63074;44.696;10.358;2023-06-24T07:24:48;6.95;;;4.20;;
74523;SDS011;63074;44.696;10.358;2023-06-24T07:27:15;7.10;;;3.75;;
74523;SDS011;63074;44.696;10.358;2023-06-24T07:29:41;6.13;;;4.10;;
74523;SDS011;63074;44.696;10.358;2023-06-24T07:32:07;7.80;;;4.78;;
74523;SDS011;63074;44.696;10.358;2023-06-24T07:34:33;5.57;;;3.67;;
74523;SDS011;63074;44.696;10.358;2023-06-24T07:37:00;7.25;;;4.00;;
74523;SDS011;63074;44.696;10.358;2023-06-24T07:39:26;8.52;;;4.80;;
74523;SDS011;63074;44.696;10.358;2023-06-24T07:41:52;8.20;;;3.83;;
74523;SDS011;63074;44.696;10.358;2023-06-24T07:44:18;6.53;;;4.38;;
74523;SDS011;63074;44.696;10.358;2023-06-24T07:46:45;5.70;;;4.13;;
74523;SDS011;63074;44.696;10.358;2023-06-24T07:49:11;5.82;;;3.60;;
74523;SDS011;63074;44.696;10.358;2023-06-24T07:51:37;6.88;;;3.83;;
74523;SDS011;63074;44.696;10.358;2023-06-24T07:54:03;5.78;;;3.60;;
74523;SDS011;63074;44.696;10.358;2023-06-24T07:56:30;7.80;;;3.88;;
74523;SDS011;63074;44.696;10.358;2023-06-24T07:58:56;6.88;;;3.63;;
74523;SDS011;63074;44.696;10.358;2023-06-24T08:01:22;5.72;;;3.45;;
74523;SDS011;63074;44.696;10.358;2023-06-24T08:03:48;5.82;;;3.03;;
74523;SDS011;63074;44.696;10.358;2023-06-24T08:06:14;8.23;;;3.92;;
74523;SDS011;63074;44.696;10.358;2023-06-24T08:08:40;5.97;;;3.65;;
74523;SDS011;63074;44.696;10.358;2023-06-24T08:11:07;6.95;;;3.63;;
74523;SDS011;63074;44.696;10.358;2023-06-24T08:13:33;5.55;;;3.00;;
74523;SDS011;63074;44.696;10.358;2023-06-24T08:15:59;4.25;;;3.40;;
74523;SDS011;63074;44.696;10.358;2023-06-24T08:18:25;5.85;;;2.78;;
74523;SDS011;63074;44.696;10.358;2023-06-24T08:20:51;6.25;;;3.30;;
74523;SDS011;63074;44.696;10.358;2023-06-24T08:23:18;5.72;;;2.65;;
74523;SDS011;63074;44.696;10.358;2023-06-24T08:25:44;4.80;;;2.35;;
74523;SDS011;63074;44.696;10.358;2023-06-24T08:28:10;4.10;;;2.47;;
74523;SDS011;63074;44.696;10.358;2023-06-24T08:30:37;6.05;;;2.58;;
74523;SDS011;63074;44.696;10.358;2023-06-24T08:33:03;5.65;;;2.28;;
74523;SDS011;63074;44.696;10.358;2023-06-24T08:35:29;4.00;;;2.45;;
74523;SDS011;63074;44.696;10.358;2023-06-24T08:37:55;4.93;;;2.75;;
74523;SDS011;63074;44.696;10.358;2023-06-24T08:40:21;4.25;;;2.35;;
74523;SDS011;63074;44.696;10.358;2023-06-24T08:42:48;4.70;;;2.38;;
74523;SDS011;63074;44.696;10.358;2023-06-24T08:45:14;4.60;;;2.28;;
74523;SDS011;63074;44.696;10.358;2023-06-24T08:47:40;5.97;;;2.80;;
74523;SDS011;63074;44.696;10.358;2023-06-24T08:50:08;4.18;;;2.08;;
74523;SDS011;63074;44.696;10.358;2023-06-24T08:52:40;5.97;;;2.50;;
74523;SDS011;63074;44.696;10.358;2023-06-24T08:55:10;4.28;;;2.70;;
74523;SDS011;63074;44.696;10.358;2023-06-24T08:57:41;5.15;;;2.53;;
74523;SDS011;63074;44.696;10.358;2023-06-24T09:00:07;5.45;;;3.20;;
74523;SDS011;63074;44.696;10.358;2023-06-24T09:02:35;6.30;;;2.60;;
74523;SDS011;63074;44.696;10.358;2023-06-24T09:05:04;6.07;;;3.08;;
74523;SDS011;63074;44.696;10.358;2023-06-24T09:07:31;3.63;;;2.63;;
74523;SDS011;63074;44.696;10.358;2023-06-24T09:09:58;5.05;;;2.20;;
74523;SDS011;63074;44.696;10.358;2023-06-24T09:12:25;4.57;;;2.38;;
74523;SDS011;63074;44.696;10.358;2023-06-24T09:14:52;4.38;;;2.60;;
74523;SDS011;63074;44.696;10.358;2023-06-24T09:17:18;5.30;;;2.67;;
74523;SDS011;63074;44.696;10.358;2023-06-24T09:19:47;5.95;;;2.50;;
74523;SDS011;63074;44.696;10.358;2023-06-24T09:22:13;4.47;;;2.45;;
74523;SDS011;63074;44.696;10.358;2023-06-24T09:24:44;4.25;;;2.20;;
74523;SDS011;63074;44.696;10.358;2023-06-24T09:27:12;4.75;;;2.67;;
74523;SDS011;63074;44.696;10.358;2023-06-24T09:29:40;5.65;;;2.35;;
74523;SDS011;63074;44.696;10.358;2023-06-24T09:32:07;4.00;;;2.58;;
74523;SDS011;63074;44.696;10.358;2023-06-24T09:34:34;4.93;;;2.28;;
74523;SDS011;63074;44.696;10.358;2023-06-24T09:37:01;3.88;;;2.38;;
74523;SDS011;63074;44.696;10.358;2023-06-24T09:41:53;3.72;;;2.45;;
74523;SDS011;63074;44.696;10.358;2023-06-24T09:44:23;4.72;;;2.28;;
74523;SDS011;63074;44.696;10.358;2023-06-24T09:46:50;4.70;;;1.85;;
74523;SDS011;63074;44.696;10.358;2023-06-24T09:49:17;4.40;;;2.03;;
74523;SDS011;63074;44.696;10.358;2023-06-24T09:51:47;2.92;;;2.05;;
74523;SDS011;63074;44.696;10.358;2023-06-24T09:54:15;3.13;;;2.05;;
74523;SDS011;63074;44.696;10.358;2023-06-24T09:56:48;5.80;;;2.55;;
74523;SDS011;63074;44.696;10.358;2023-06-24T09:59:15;3.28;;;2.33;;
74523;SDS011;63074;44.696;10.358;2023-06-24T10:01:47;3.85;;;2.08;;
74523;SDS011;63074;44.696;10.358;2023-06-24T10:04:18;4.10;;;2.10;;
74523;SDS011;63074;44.696;10.358;2023-06-24T10:06:46;6.75;;;2.45;;
74523;SDS011;63074;44.696;10.358;2023-06-24T10:09:13;4.40;;;2.45;;
74523;SDS011;63074;44.696;10.358;2023-06-24T10:11:42;4.32;;;2.05;;
74523;SDS011;63074;44.696;10.358;2023-06-24T10:14:12;3.60;;;1.83;;
74523;SDS011;63074;44.696;10.358;2023-06-24T10:16:42;3.08;;;1.90;;
74523;SDS011;63074;44.696;10.358;2023-06-24T10:19:09;4.20;;;1.83;;
74523;SDS011;63074;44.696;10.358;2023-06-24T10:26:53;4.00;;;1.90;;
74523;SDS011;63074;44.696;10.358;2023-06-24T10:29:29;3.45;;;2.05;;
74523;SDS011;63074;44.696;10.358;2023-06-24T10:31:53;3.75;;;1.83;;
74523;SDS011;63074;44.696;10.358;2023-06-24T10:41:54;5.35;;;1.95;;
74523;SDS011;63074;44.696;10.358;2023-06-24T10:44:20;5.28;;;1.90;;
74523;SDS011;63074;44.696;10.358;2023-06-24T10:46:53;6.45;;;2.35;;
74523;SDS011;63074;44.696;10.358;2023-06-24T10:49:20;3.78;;;2.08;;
74523;SDS011;63074;44.696;10.358;2023-06-24T10:51:46;3.85;;;2.08;;
74523;SDS011;63074;44.696;10.358;2023-06-24T10:54:12;3.60;;;2.13;;
74523;SDS011;63074;44.696;10.358;2023-06-24T10:56:38;5.72;;;2.70;;
74523;SDS011;63074;44.696;10.358;2023-06-24T10:59:05;4.88;;;2.42;;
74523;SDS011;63074;44.696;10.358;2023-06-24T11:01:31;4.70;;;2.67;;
74523;SDS011;63074;44.696;10.358;2023-06-24T11:03:57;4.32;;;2.15;;
74523;SDS011;63074;44.696;10.358;2023-06-24T11:06:30;4.13;;;2.58;;
74523;SDS011;63074;44.696;10.358;2023-06-24T11:09:01;4.20;;;2.55;;
74523;SDS011;63074;44.696;10.358;2023-06-24T11:13:53;7.53;;;2.75;;
74523;SDS011;63074;44.696;10.358;2023-06-24T11:16:21;4.53;;;2.78;;
74523;SDS011;63074;44.696;10.358;2023-06-24T11:18:47;8.40;;;3.17;;
74523;SDS011;63074;44.696;10.358;2023-06-24T11:21:14;6.13;;;2.85;;
74523;SDS011;63074;44.696;10.358;2023-06-24T11:23:40;4.40;;;3.00;;
74523;SDS011;63074;44.696;10.358;2023-06-24T11:26:07;3.83;;;2.35;;
74523;SDS011;63074;44.696;10.358;2023-06-24T11:28:33;3.70;;;2.20;;
74523;SDS011;63074;44.696;10.358;2023-06-24T11:31:06;5.13;;;2.40;;
74523;SDS011;63074;44.696;10.358;2023-06-24T11:33:33;4.63;;;3.28;;
74523;SDS011;63074;44.696;10.358;2023-06-24T11:35:59;4.22;;;2.58;;
74523;SDS011;63074;44.696;10.358;2023-06-24T11:38:25;5.03;;;2.70;;
74523;SDS011;63074;44.696;10.358;2023-06-24T11:40:52;5.65;;;3.78;;
74523;SDS011;63074;44.696;10.358;2023-06-24T11:43:25;5.35;;;2.63;;
74523;SDS011;63074;44.696;10.358;2023-06-24T11:45:51;3.75;;;2.72;;
74523;SDS011;63074;44.696;10.358;2023-06-24T11:48:17;5.07;;;2.47;;
74523;SDS011;63074;44.696;10.358;2023-06-24T11:50:52;3.85;;;2.38;;
74523;SDS011;63074;44.696;10.358;2023-06-24T11:55:53;3.83;;;2.05;;
74523;SDS011;63074;44.696;10.358;2023-06-24T11:58:21;2.78;;;1.90;;
74523;SDS011;63074;44.696;10.358;2023-06-24T12:00:48;3.75;;;2.25;;
74523;SDS011;63074;44.696;10.358;2023-06-24T12:03:17;3.85;;;2.50;;
74523;SDS011;63074;44.696;10.358;2023-06-24T12:05:47;4.63;;;2.67;;
74523;SDS011;63074;44.696;10.358;2023-06-24T12:08:13;4.90;;;3.05;;
74523;SDS011;63074;44.696;10.358;2023-06-24T12:10:40;4.47;;;2.40;;
74523;SDS011;63074;44.696;10.358;2023-06-24T12:13:08;4.65;;;2.50;;
74523;SDS011;63074;44.696;10.358;2023-06-24T12:15:34;5.88;;;2.90;;
74523;SDS011;63074;44.696;10.358;2023-06-24T12:18:01;4.70;;;3.13;;
74523;SDS011;63074;44.696;10.358;2023-06-24T12:26:20;4.00;;;2.70;;
74523;SDS011;63074;44.696;10.358;2023-06-24T12:28:46;5.28;;;2.80;;
74523;SDS011;63074;44.696;10.358;2023-06-24T12:31:12;4.43;;;2.80;;
74523;SDS011;63074;44.696;10.358;2023-06-24T12:33:39;3.53;;;2.85;;
74523;SDS011;63074;44.696;10.358;2023-06-24T12:36:05;5.20;;;2.80;;
74523;SDS011;63074;44.696;10.358;2023-06-24T12:38:31;2.92;;;2.20;;
74523;SDS011;63074;44.696;10.358;2023-06-24T12:40:57;4.00;;;2.08;;
74523;SDS011;63074;44.696;10.358;2023-06-24T12:43:23;3.75;;;2.83;;
74523;SDS011;63074;44.696;10.358;2023-06-24T12:45:50;4.32;;;2.55;;
74523;SDS011;63074;44.696;10.358;2023-06-24T12:48:16;3.97;;;1.92;;
74523;SDS011;63074;44.696;10.358;2023-06-24T12:50:42;4.57;;;2.08;;
74523;SDS011;63074;44.696;10.358;2023-06-24T12:53:08;3.35;;;1.70;;
74523;SDS011;63074;44.696;10.358;2023-06-24T12:55:39;2.63;;;1.67;;
74523;SDS011;63074;44.696;10.358;2023-06-24T12:58:05;3.72;;;1.92;;
74523;SDS011;63074;44.696;10.358;2023-06-24T13:00:32;2.78;;;1.60;;
74523;SDS011;63074;44.696;10.358;2023-06-24T13:02:58;4.05;;;2.00;;
74523;SDS011;63074;44.696;10.358;2023-06-24T13:05:24;2.42;;;1.52;;
74523;SDS011;63074;44.696;10.358;2023-06-24T13:07:50;3.53;;;1.83;;
74523;SDS011;63074;44.696;10.358;2023-06-24T13:10:17;3.47;;;1.85;;
74523;SDS011;63074;44.696;10.358;2023-06-24T13:12:43;3.50;;;2.00;;
74523;SDS011;63074;44.696;10.358;2023-06-24T13:15:09;2.88;;;1.92;;
74523;SDS011;63074;44.696;10.358;2023-06-24T13:17:36;3.45;;;1.65;;
74523;SDS011;63074;44.696;10.358;2023-06-24T13:20:02;4.20;;;1.38;;
74523;SDS011;63074;44.696;10.358;2023-06-24T13:22:29;3.55;;;1.75;;
74523;SDS011;63074;44.696;10.358;2023-06-24T13:24:56;4.30;;;1.40;;
74523;SDS011;63074;44.696;10.358;2023-06-24T13:27:23;3.78;;;1.65;;
74523;SDS011;63074;44.696;10.358;2023-06-24T13:29:49;2.90;;;1.63;;
74523;SDS011;63074;44.696;10.358;2023-06-24T13:32:15;6.28;;;1.77;;
74523;SDS011;63074;44.696;10.358;2023-06-24T13:34:41;4.80;;;2.25;;
74523;SDS011;63074;44.696;10.358;2023-06-24T13:37:07;3.17;;;2.00;;
74523;SDS011;63074;44.696;10.358;2023-06-24T13:39:34;3.17;;;1.85;;
74523;SDS011;63074;44.696;10.358;2023-06-24T13:42:00;2.28;;;1.77;;
74523;SDS011;63074;44.696;10.358;2023-06-24T13:44:26;2.97;;;1.90;;
74523;SDS011;63074;44.696;10.358;2023-06-24T13:46:52;4.18;;;1.90;;
74523;SDS011;63074;44.696;10.358;2023-06-24T13:49:18;3.22;;;1.90;;
74523;SDS011;63074;44.696;10.358;2023-06-24T13:51:45;3.78;;;1.95;;
74523;SDS011;63074;44.696;10.358;2023-06-24T13:54:11;5.22;;;2.10;;
74523;SDS011;63074;44.696;10.358;2023-06-24T13:56:37;2.80;;;2.03;;
74523;SDS011;63074;44.696;10.358;2023-06-24T13:59:04;4.15;;;2.10;;
74523;SDS011;63074;44.696;10.358;2023-06-24T14:01:30;4.60;;;2.70;;
74523;SDS011;63074;44.696;10.358;2023-06-24T14:03:56;2.97;;;1.92;;
74523;SDS011;63074;44.696;10.358;2023-06-24T14:06:22;3.53;;;2.28;;
74523;SDS011;63074;44.696;10.358;2023-06-24T14:08:49;4.60;;;2.42;;
74523;SDS011;63074;44.696;10.358;2023-06-24T14:11:16;3.60;;;2.33;;
74523;SDS011;63074;44.696;10.358;2023-06-24T14:13:43;3.28;;;1.90;;
74523;SDS011;63074;44.696;10.358;2023-06-24T14:16:09;4.47;;;2.05;;
74523;SDS011;63074;44.696;10.358;2023-06-24T14:18:36;4.03;;;2.05;;
74523;SDS011;63074;44.696;10.358;2023-06-24T14:21:04;3.75;;;2.45;;
74523;SDS011;63074;44.696;10.358;2023-06-24T14:23:32;3.05;;;1.85;;
74523;SDS011;63074;44.696;10.358;2023-06-24T14:25:59;2.67;;;2.00;;
74523;SDS011;63074;44.696;10.358;2023-06-24T14:28:25;4.05;;;1.88;;
74523;SDS011;63074;44.696;10.358;2023-06-24T14:30:51;3.95;;;1.92;;
74523;SDS011;63074;44.696;10.358;2023-06-24T14:33:18;5.22;;;1.77;;
74523;SDS011;63074;44.696;10.358;2023-06-24T14:35:44;2.97;;;2.28;;
74523;SDS011;63074;44.696;10.358;2023-06-24T14:38:10;4.18;;;2.15;;
74523;SDS011;63074;44.696;10.358;2023-06-24T14:40:36;3.03;;;1.17;;
74523;SDS011;63074;44.696;10.358;2023-06-24T14:43:02;2.88;;;1.50;;
74523;SDS011;63074;44.696;10.358;2023-06-24T14:47:55;2.40;;;1.63;;
74523;SDS011;63074;44.696;10.358;2023-06-24T14:50:22;5.97;;;1.60;;
74523;SDS011;63074;44.696;10.358;2023-06-24T14:52:49;3.85;;;1.88;;
74523;SDS011;63074;44.696;10.358;2023-06-24T14:55:15;4.72;;;1.77;;
74523;SDS011;63074;44.696;10.358;2023-06-24T14:57:41;3.47;;;1.77;;
74523;SDS011;63074;44.696;10.358;2023-06-24T15:00:08;3.85;;;1.70;;
74523;SDS011;63074;44.696;10.358;2023-06-24T15:02:34;4.60;;;2.13;;
74523;SDS011;63074;44.696;10.358;2023-06-24T15:05:01;3.10;;;2.03;;
74523;SDS011;63074;44.696;10.358;2023-06-24T15:09:53;4.22;;;1.95;;
74523;SDS011;63074;44.696;10.358;2023-06-24T15:12:20;2.70;;;1.67;;
74523;SDS011;63074;44.696;10.358;2023-06-24T15:14:46;2.65;;;1.83;;
74523;SDS011;63074;44.696;10.358;2023-06-24T15:17:13;3.22;;;2.13;;
74523;SDS011;63074;44.696;10.358;2023-06-24T15:19:40;3.03;;;1.90;;
74523;SDS011;63074;44.696;10.358;2023-06-24T15:22:06;3.05;;;1.60;;
74523;SDS011;63074;44.696;10.358;2023-06-24T15:24:32;3.70;;;1.23;;
74523;SDS011;63074;44.696;10.358;2023-06-24T15:26:59;2.40;;;1.58;;
74523;SDS011;63074;44.696;10.358;2023-06-24T15:29:25;2.92;;;1.90;;
74523;SDS011;63074;44.696;10.358;2023-06-24T15:31:51;3.10;;;1.70;;
74523;SDS011;63074;44.696;10.358;2023-06-24T15:34:17;3.92;;;1.80;;
74523;SDS011;63074;44.696;10.358;2023-06-24T15:36:43;2.67;;;1.67;;